Time;durP1;ratioP1;P1;durP2;ratioP2;P2;SDS_P1;SDS_P2;PMS_P1;PMS_P2;Temp;Humidity;BMP_temperature;BMP_pressure;BME280_temperature;BME280_humidity;BME280_pressure;Samples;Min_cycle;Max_cycle;Signal;HPM_P1;HPM_P2
2021/08/20 00:00:47;;;;;;;12.85;9.15;;;18.50;99.90;;;;;;5060058;28;20054;-74
2021/08/20 00:03:13;;;;;;;12.02;9.00;;;18.50;99.90;;;;;;5057638;28;20485;-74
2021/08/20 00:05:39;;;;;;;12.57;8.73;;;18.40;99.90;;;;;;5060868;28;20040;-74
2021/08/20 00:08:04;;;;;;;16.52;10.45;;;18.40;99.90;;;;;;5070873;28;20023;-74
2021/08/20 00:10:30;;;;;;;13.13;9.52;;;18.30;99.90;;;;;;5042458;28;20037;-74
2021/08/20 00:12:56;;;;;;;14.80;9.40;;;18.30;99.90;;;;;;5050358;28;20014;-74
2021/08/20 00:15:21;;;;;;;12.65;9.00;;;18.30;99.90;;;;;;5050534;28;20024;-74
2021/08/20 00:17:47;;;;;;;13.00;10.70;;;18.30;99.90;;;;;;5067552;28;20040;-74
2021/08/20 00:20:13;;;;;;;18.48;10.75;;;18.30;99.90;;;;;;5064347;28;20128;-74
2021/08/20 00:22:39;;;;;;;13.48;11.65;;;18.20;99.90;;;;;;5061774;28;20103;-74
2021/08/20 00:25:04;;;;;;;18.08;11.93;;;18.20;99.90;;;;;;5069409;28;20107;-73
2021/08/20 00:27:30;;;;;;;16.02;12.13;;;18.20;99.90;;;;;;5064693;28;20020;-74
2021/08/20 00:29:56;;;;;;;12.23;9.55;;;18.20;99.90;;;;;;5068343;28;20029;-74
2021/08/20 00:32:22;;;;;;;13.38;10.60;;;18.20;99.90;;;;;;5068271;28;20400;-74
2021/08/20 00:34:47;;;;;;;12.98;10.07;;;18.10;99.90;;;;;;5055454;28;20150;-75
2021/08/20 00:37:14;;;;;;;11.75;10.05;;;18.10;99.90;;;;;;5066561;28;20067;-75
2021/08/20 00:39:41;;;;;;;13.90;9.70;;;18.10;99.90;;;;;;5072410;28;20078;-74
2021/08/20 00:42:07;;;;;;;10.63;9.27;;;18.10;99.90;;;;;;5067164;28;20023;-74
2021/08/20 00:44:33;;;;;;;13.55;10.32;;;18.10;99.90;;;;;;5070024;28;20112;-74
2021/08/20 00:46:59;;;;;;;15.13;11.02;;;18.10;99.90;;;;;;5071916;28;20020;-74
2021/08/20 00:49:24;;;;;;;13.70;10.07;;;18.00;99.90;;;;;;5064762;28;20413;-74
2021/08/20 00:51:51;;;;;;;11.50;7.97;;;18.00;99.90;;;;;;5062986;28;20009;-74
2021/08/20 00:54:18;;;;;;;13.27;9.52;;;18.00;99.90;;;;;;5067821;28;20032;-74
2021/08/20 00:56:45;;;;;;;18.48;10.57;;;17.90;99.90;;;;;;5064515;28;20037;-74
2021/08/20 00:59:12;;;;;;;12.20;10.77;;;17.90;99.90;;;;;;5068377;28;20111;-74
2021/08/20 01:01:38;;;;;;;14.82;11.13;;;17.90;99.90;;;;;;5068606;28;20024;-73
2021/08/20 01:04:08;;;;;;;17.17;9.77;;;17.90;99.90;;;;;;5064791;28;20032;-74
2021/08/20 01:06:37;;;;;;;20.52;12.10;;;17.90;99.90;;;;;;5066348;28;20059;-74
2021/08/20 01:09:02;;;;;;;17.98;11.70;;;17.90;99.90;;;;;;5065003;28;20024;-74
2021/08/20 01:11:28;;;;;;;12.82;11.40;;;17.90;99.90;;;;;;5059986;28;20397;-73
2021/08/20 01:13:54;;;;;;;16.85;12.40;;;17.90;99.90;;;;;;5068067;28;20028;-74
2021/08/20 01:16:21;;;;;;;17.02;11.98;;;17.90;99.90;;;;;;5067310;28;20025;-74
2021/08/20 01:18:46;;;;;;;14.95;11.77;;;17.90;99.90;;;;;;5063121;28;20033;-74
2021/08/20 01:21:18;;;;;;;15.75;11.00;;;17.90;99.90;;;;;;5068022;28;20358;-74
2021/08/20 01:23:52;;;;;;;13.73;11.35;;;17.90;99.90;;;;;;5064107;28;20033;-73
2021/08/20 01:26:18;;;;;;;18.20;11.63;;;17.90;99.90;;;;;;5063241;28;20033;-74
2021/08/20 01:28:44;;;;;;;16.27;11.40;;;17.90;99.90;;;;;;5060695;28;20032;-74
2021/08/20 01:31:13;;;;;;;15.65;11.90;;;17.90;99.90;;;;;;5064104;28;20033;-74
2021/08/20 01:33:39;;;;;;;16.52;12.55;;;17.90;99.90;;;;;;5068368;28;20056;-74
2021/08/20 01:36:05;;;;;;;16.80;11.95;;;17.80;99.90;;;;;;5065494;28;20025;-74
2021/08/20 01:38:33;;;;;;;16.63;12.65;;;17.90;99.90;;;;;;5064599;28;20108;-74
2021/08/20 01:40:59;;;;;;;19.83;14.32;;;17.90;99.90;;;;;;5051517;28;20074;-74
2021/08/20 01:43:25;;;;;;;21.55;14.10;;;17.80;99.90;;;;;;5065776;28;20025;-74
2021/08/20 01:45:51;;;;;;;19.33;13.40;;;17.80;99.90;;;;;;5060551;28;20466;-74
2021/08/20 01:48:18;;;;;;;17.35;13.05;;;17.90;99.90;;;;;;5066297;28;20420;-74
2021/08/20 01:50:44;;;;;;;14.05;12.23;;;17.80;99.90;;;;;;5060653;28;20082;-74
2021/08/20 01:53:16;;;;;;;16.58;12.00;;;17.80;99.90;;;;;;5067744;28;20392;-74
2021/08/20 01:55:44;;;;;;;16.10;11.65;;;17.80;99.90;;;;;;5067421;28;20058;-75
2021/08/20 01:58:10;;;;;;;14.50;12.65;;;17.80;99.90;;;;;;5058567;28;20012;-74
2021/08/20 02:00:37;;;;;;;15.93;12.40;;;17.80;99.90;;;;;;5061570;28;20123;-74
2021/08/20 02:03:03;;;;;;;12.85;11.27;;;17.80;99.90;;;;;;5070729;28;20012;-74
2021/08/20 02:05:29;;;;;;;15.50;11.57;;;17.80;99.90;;;;;;5069272;28;20035;-74
2021/08/20 02:07:55;;;;;;;16.73;12.00;;;17.80;99.90;;;;;;5066757;28;20557;-74
2021/08/20 02:10:21;;;;;;;11.38;10.02;;;17.80;99.90;;;;;;5069818;28;20036;-74
2021/08/20 02:12:46;;;;;;;12.05;10.80;;;17.80;99.90;;;;;;5069008;28;20091;-74
2021/08/20 02:15:12;;;;;;;17.58;11.15;;;17.80;99.90;;;;;;5053508;28;20028;-73
2021/08/20 02:17:39;;;;;;;11.30;9.38;;;17.80;99.90;;;;;;5064248;28;20504;-74
2021/08/20 02:20:05;;;;;;;15.70;10.00;;;17.90;99.90;;;;;;5051322;28;20029;-74
2021/08/20 02:22:31;;;;;;;11.50;9.10;;;17.80;99.90;;;;;;5068631;28;20107;-74
2021/08/20 02:24:56;;;;;;;14.85;9.63;;;17.90;99.90;;;;;;5049647;28;20104;-74
2021/08/20 02:27:22;;;;;;;12.02;9.43;;;17.90;99.90;;;;;;5068126;28;20492;-74
2021/08/20 02:29:48;;;;;;;14.93;9.52;;;17.90;99.90;;;;;;5064319;28;20041;-74
2021/08/20 02:32:14;;;;;;;14.63;9.73;;;17.90;99.90;;;;;;5062939;28;20470;-74
2021/08/20 02:34:40;;;;;;;11.52;9.77;;;17.90;99.90;;;;;;5068044;28;20036;-74
2021/08/20 02:37:05;;;;;;;13.88;9.43;;;17.80;99.90;;;;;;5069715;28;20016;-74
2021/08/20 02:39:33;;;;;;;12.00;8.55;;;17.90;99.90;;;;;;5068670;28;20465;-75
2021/08/20 02:41:59;;;;;;;10.95;9.50;;;17.90;99.90;;;;;;5070986;28;20048;-73
2021/08/20 02:44:25;;;;;;;12.68;9.98;;;17.90;99.90;;;;;;5071757;28;20538;-74
2021/08/20 02:46:50;;;;;;;10.75;9.15;;;17.90;99.90;;;;;;5056388;28;20036;-74
2021/08/20 02:49:16;;;;;;;12.98;9.13;;;18.00;99.90;;;;;;5066512;28;20100;-74
2021/08/20 02:51:42;;;;;;;16.95;9.60;;;17.90;99.90;;;;;;5058010;28;20079;-73
2021/08/20 02:54:07;;;;;;;13.40;10.20;;;17.90;99.90;;;;;;5071847;28;20488;-74
2021/08/20 02:56:33;;;;;;;12.43;9.32;;;17.90;99.90;;;;;;5065430;28;20044;-74
2021/08/20 02:58:59;;;;;;;13.23;10.30;;;17.90;99.90;;;;;;5063003;28;20104;-75
2021/08/20 03:01:24;;;;;;;12.32;9.57;;;17.90;99.90;;;;;;5067855;28;20466;-74
2021/08/20 03:03:52;;;;;;;15.20;10.35;;;17.90;99.90;;;;;;5072887;28;20162;-74
2021/08/20 03:06:18;;;;;;;12.35;9.82;;;18.00;99.90;;;;;;5057162;28;20024;-74
2021/08/20 03:08:43;;;;;;;12.27;9.75;;;18.00;99.90;;;;;;5067664;28;20499;-74
2021/08/20 03:11:09;;;;;;;13.65;9.80;;;18.00;99.90;;;;;;5070017;28;20033;-75
2021/08/20 03:13:35;;;;;;;17.70;10.30;;;18.00;99.90;;;;;;5070651;28;20023;-74
2021/08/20 03:16:01;;;;;;;13.82;9.35;;;18.10;99.90;;;;;;5068585;28;20024;-75
2021/08/20 03:18:27;;;;;;;15.25;10.88;;;18.00;99.90;;;;;;5067695;28;20056;-74
2021/08/20 03:20:52;;;;;;;15.38;10.55;;;18.10;99.90;;;;;;5069980;28;20503;-74
2021/08/20 03:23:18;;;;;;;13.70;10.88;;;18.10;99.90;;;;;;5066144;28;20029;-74
2021/08/20 03:25:44;;;;;;;17.90;10.50;;;18.10;99.90;;;;;;5066335;28;20024;-74
2021/08/20 03:28:10;;;;;;;12.10;9.93;;;18.10;99.90;;;;;;5069224;28;20023;-74
2021/08/20 03:30:36;;;;;;;13.98;10.98;;;18.10;99.90;;;;;;5068839;28;20392;-74
2021/08/20 03:33:03;;;;;;;15.45;11.35;;;18.10;99.90;;;;;;5056632;28;20021;-74
2021/08/20 03:35:29;;;;;;;15.70;10.63;;;18.10;99.90;;;;;;5063678;28;20033;-74
2021/08/20 03:37:58;;;;;;;18.13;12.32;;;18.20;99.90;;;;;;5068395;28;20469;-74
2021/08/20 03:40:24;;;;;;;10.48;7.63;;;18.10;99.90;;;;;;5056537;28;20067;-74
2021/08/20 03:42:53;;;;;;;9.38;6.95;;;18.10;99.90;;;;;;5061518;28;20536;-74
2021/08/20 03:45:19;;;;;;;9.85;6.03;;;18.10;99.90;;;;;;5069678;28;20025;-74
2021/08/20 03:47:45;;;;;;;10.07;6.78;;;18.10;99.90;;;;;;5067014;28;20119;-74
2021/08/20 03:50:11;;;;;;;9.73;7.20;;;18.10;99.90;;;;;;5066472;28;20382;-76
2021/08/20 03:52:37;;;;;;;8.43;7.25;;;18.00;99.90;;;;;;5067741;28;20041;-74
2021/08/20 03:55:03;;;;;;;11.02;7.38;;;18.00;99.90;;;;;;5067697;28;20028;-74
2021/08/20 03:57:28;;;;;;;9.07;6.80;;;18.10;99.90;;;;;;5066614;28;20028;-74
2021/08/20 03:59:54;;;;;;;10.48;7.40;;;18.10;99.90;;;;;;5071287;28;20028;-74
2021/08/20 04:02:20;;;;;;;11.70;7.28;;;18.10;99.90;;;;;;5060701;28;20036;-74
2021/08/20 04:04:45;;;;;;;11.95;8.82;;;18.10;99.90;;;;;;5064808;28;20020;-74
2021/08/20 04:07:14;;;;;;;14.05;9.18;;;18.10;99.90;;;;;;5068314;28;20025;-74
2021/08/20 04:09:39;;;;;;;16.95;11.27;;;18.10;99.90;;;;;;5060640;28;20090;-74
2021/08/20 04:12:05;;;;;;;16.77;12.20;;;18.10;99.90;;;;;;5066149;28;20025;-74
2021/08/20 04:14:31;;;;;;;17.60;12.27;;;18.00;99.90;;;;;;5065812;28;20032;-74
2021/08/20 04:16:56;;;;;;;15.13;11.60;;;18.10;99.90;;;;;;5068724;28;20427;-74
2021/08/20 04:19:22;;;;;;;21.02;13.55;;;18.10;99.90;;;;;;5073576;28;20075;-73
2021/08/20 04:21:48;;;;;;;19.83;12.18;;;18.00;99.90;;;;;;5070500;28;20052;-74
2021/08/20 04:24:15;;;;;;;21.73;14.05;;;18.10;99.90;;;;;;5070692;28;20443;-74
2021/08/20 04:26:40;;;;;;;18.95;12.50;;;18.10;99.90;;;;;;5059721;28;20032;-74
2021/08/20 04:29:06;;;;;;;23.38;14.40;;;18.00;99.90;;;;;;5056165;28;20388;-74
2021/08/20 04:31:32;;;;;;;22.48;13.43;;;18.00;99.90;;;;;;5067438;28;20037;-74
2021/08/20 04:33:58;;;;;;;24.90;14.23;;;18.10;99.90;;;;;;5063094;28;20028;-74
2021/08/20 04:36:23;;;;;;;23.02;15.07;;;18.10;99.90;;;;;;5065376;28;20457;-74
2021/08/20 04:38:49;;;;;;;18.38;12.77;;;18.10;99.90;;;;;;5067684;28;20028;-74
2021/08/20 04:41:14;;;;;;;20.55;13.55;;;18.10;99.90;;;;;;5071402;28;20497;-74
2021/08/20 04:43:40;;;;;;;22.65;14.27;;;18.10;99.90;;;;;;5064554;28;20082;-74
2021/08/20 04:46:06;;;;;;;22.85;14.05;;;18.10;99.90;;;;;;5069682;28;20024;-74
2021/08/20 04:48:32;;;;;;;22.48;13.93;;;18.10;99.90;;;;;;5069849;28;20036;-74
2021/08/20 04:50:58;;;;;;;23.38;14.57;;;18.10;99.90;;;;;;5062600;28;20081;-75
2021/08/20 04:53:28;;;;;;;24.45;14.52;;;18.10;99.90;;;;;;5061385;28;20087;-74
2021/08/20 04:55:53;;;;;;;22.35;14.30;;;18.10;99.90;;;;;;5067687;28;20040;-74
2021/08/20 04:58:19;;;;;;;26.52;14.88;;;18.20;99.90;;;;;;5061743;28;20028;-74
2021/08/20 05:00:46;;;;;;;26.63;14.05;;;18.10;99.90;;;;;;5063585;28;20028;-73
2021/08/20 05:03:13;;;;;;;25.85;14.02;;;18.10;99.90;;;;;;5066190;28;20097;-74
2021/08/20 05:05:46;;;;;;;22.48;13.88;;;18.10;99.90;;;;;;5053596;28;20024;-74
2021/08/20 05:08:12;;;;;;;28.75;14.48;;;18.10;99.90;;;;;;5063216;28;20503;-74
2021/08/20 05:10:38;;;;;;;25.90;14.43;;;18.10;99.90;;;;;;5066497;28;20442;-74
2021/08/20 05:13:05;;;;;;;21.20;13.77;;;18.10;99.90;;;;;;5065529;28;20107;-74
2021/08/20 05:15:30;;;;;;;27.83;14.52;;;18.10;99.90;;;;;;5054773;28;20090;-74
2021/08/20 05:17:57;;;;;;;26.00;14.35;;;18.00;99.90;;;;;;5068166;28;20021;-74
2021/08/20 05:20:23;;;;;;;24.13;14.95;;;18.10;99.90;;;;;;5071154;28;20024;-74
2021/08/20 05:22:53;;;;;;;25.55;14.75;;;18.00;99.90;;;;;;5065773;28;20366;-74
2021/08/20 05:25:21;;;;;;;29.92;15.23;;;18.10;99.90;;;;;;5065735;28;20044;-74
2021/08/20 05:27:47;;;;;;;27.92;14.00;;;18.10;99.90;;;;;;5070927;28;20029;-74
2021/08/20 05:30:14;;;;;;;19.33;12.68;;;18.10;99.90;;;;;;5065352;28;20044;-75
2021/08/20 05:32:40;;;;;;;18.67;11.82;;;18.10;99.90;;;;;;5069851;28;20033;-74
2021/08/20 05:35:09;;;;;;;17.85;10.77;;;18.10;99.90;;;;;;5053700;28;20025;-75
2021/08/20 05:37:35;;;;;;;21.42;11.15;;;18.10;99.90;;;;;;5060595;28;20441;-74
2021/08/20 05:40:00;;;;;;;18.92;11.25;;;18.10;99.90;;;;;;5059690;28;20048;-74
2021/08/20 05:42:27;;;;;;;19.17;10.82;;;18.10;99.90;;;;;;5061403;28;20021;-74
2021/08/20 05:44:53;;;;;;;22.13;10.75;;;18.10;99.90;;;;;;5063268;28;20460;-74
2021/08/20 05:47:19;;;;;;;22.13;12.02;;;18.20;99.90;;;;;;5056681;28;20082;-74
2021/08/20 05:49:44;;;;;;;17.80;11.07;;;18.20;99.90;;;;;;5063948;28;20059;-73
2021/08/20 05:52:10;;;;;;;16.25;10.80;;;18.30;99.90;;;;;;5068432;28;20048;-75
2021/08/20 05:54:36;;;;;;;17.17;10.93;;;18.30;99.90;;;;;;5042389;28;20025;-74
2021/08/20 05:57:02;;;;;;;20.45;11.07;;;18.30;99.90;;;;;;5064572;28;20085;-74
2021/08/20 05:59:27;;;;;;;21.75;12.50;;;18.30;99.90;;;;;;5066684;28;20028;-74
2021/08/20 06:01:53;;;;;;;17.27;10.40;;;18.30;99.90;;;;;;5067477;28;20032;-76
2021/08/20 06:04:18;;;;;;;18.70;10.50;;;18.30;99.90;;;;;;5069413;28;20096;-74
2021/08/20 06:06:44;;;;;;;20.02;10.73;;;18.30;99.90;;;;;;5072001;28;20047;-74
2021/08/20 06:09:10;;;;;;;18.23;11.20;;;18.40;99.90;;;;;;5068358;28;20024;-74
2021/08/20 06:11:36;;;;;;;18.40;11.07;;;18.60;99.90;;;;;;5068702;28;20032;-74
2021/08/20 06:14:01;;;;;;;20.67;11.10;;;18.50;99.90;;;;;;5067987;28;20032;-74
2021/08/20 06:16:27;;;;;;;17.92;11.05;;;18.50;99.90;;;;;;5067904;28;20036;-74
2021/08/20 06:18:53;;;;;;;19.27;10.63;;;18.60;99.90;;;;;;5063465;28;20025;-74
2021/08/20 06:21:19;;;;;;;18.48;11.60;;;18.60;99.90;;;;;;5061697;28;20027;-73
2021/08/20 06:23:45;;;;;;;17.85;9.50;;;18.60;99.90;;;;;;5062736;28;20036;-74
2021/08/20 06:26:11;;;;;;;14.85;9.88;;;18.60;99.90;;;;;;5062172;28;20048;-74
2021/08/20 06:28:37;;;;;;;19.77;8.90;;;18.60;99.90;;;;;;5063673;28;20033;-75
2021/08/20 06:31:03;;;;;;;11.85;8.68;;;18.70;99.90;;;;;;5063686;28;20071;-76
2021/08/20 06:33:33;;;;;;;12.23;8.13;;;18.70;99.90;;;;;;5065902;28;20473;-75
2021/08/20 06:35:59;;;;;;;9.88;6.82;;;18.70;99.90;;;;;;5049246;28;20496;-75
2021/08/20 06:38:25;;;;;;;11.05;6.50;;;18.70;99.90;;;;;;5064094;28;20033;-75
2021/08/20 06:40:51;;;;;;;8.18;6.15;;;18.70;99.90;;;;;;5063736;28;20362;-77
2021/08/20 06:43:17;;;;;;;10.07;6.40;;;18.80;99.90;;;;;;5053098;28;20469;-74
2021/08/20 06:45:43;;;;;;;8.60;5.38;;;18.80;99.90;;;;;;5060816;28;20073;-74
2021/08/20 06:48:08;;;;;;;7.78;4.78;;;18.80;99.90;;;;;;5062148;28;20032;-75
2021/08/20 06:50:34;;;;;;;5.28;4.63;;;18.90;99.90;;;;;;5066253;28;20036;-76
2021/08/20 06:53:00;;;;;;;3.85;2.78;;;18.80;99.90;;;;;;5052016;28;20326;-75
2021/08/20 06:55:25;;;;;;;3.67;2.75;;;18.90;99.90;;;;;;5069363;28;20112;-76
2021/08/20 06:57:51;;;;;;;4.13;2.50;;;18.90;99.90;;;;;;5065410;28;20025;-74
2021/08/20 07:00:17;;;;;;;3.60;2.90;;;18.90;99.90;;;;;;5069647;28;20028;-75
2021/08/20 07:02:46;;;;;;;2.60;2.40;;;19.00;99.90;;;;;;5064108;28;20032;-74
2021/08/20 07:05:13;;;;;;;4.35;2.30;;;19.00;99.90;;;;;;5063794;28;20029;-74
2021/08/20 07:07:39;;;;;;;3.00;2.70;;;19.10;99.90;;;;;;5063165;28;20154;-74
2021/08/20 07:10:13;;;;;;;4.75;2.60;;;19.10;99.90;;;;;;5063450;28;20108;-77
2021/08/20 07:12:39;;;;;;;2.80;2.60;;;19.10;99.90;;;;;;5060867;28;20393;-75
2021/08/20 07:15:06;;;;;;;2.92;2.13;;;19.10;99.90;;;;;;5069640;28;20032;-75
2021/08/20 07:17:32;;;;;;;4.18;2.70;;;19.10;99.90;;;;;;5070196;28;20024;-74
2021/08/20 07:19:59;;;;;;;4.18;2.80;;;19.20;99.90;;;;;;5068781;28;20094;-75
2021/08/20 07:22:25;;;;;;;2.72;2.50;;;19.20;99.90;;;;;;5070431;28;20062;-75
2021/08/20 07:24:50;;;;;;;3.17;2.83;;;19.20;99.90;;;;;;5048288;28;20404;-75
2021/08/20 07:27:17;;;;;;;3.33;3.03;;;19.30;99.90;;;;;;5059457;28;20021;-75
2021/08/20 07:29:42;;;;;;;3.38;3.13;;;19.40;99.90;;;;;;5067922;28;20025;-75
2021/08/20 07:32:08;;;;;;;5.07;4.68;;;19.40;99.90;;;;;;5063411;28;20582;-75
2021/08/20 07:34:34;;;;;;;5.43;4.88;;;19.40;99.90;;;;;;5070280;28;20025;-75
2021/08/20 07:36:59;;;;;;;7.90;5.85;;;19.40;99.90;;;;;;5072371;28;20024;-75
2021/08/20 07:39:26;;;;;;;5.70;5.22;;;19.40;99.90;;;;;;5072775;28;20035;-75
2021/08/20 07:41:56;;;;;;;7.07;6.38;;;19.40;99.90;;;;;;5065652;28;20035;-74
2021/08/20 07:44:22;;;;;;;8.40;7.50;;;19.40;99.90;;;;;;5068309;28;20096;-75
2021/08/20 07:46:48;;;;;;;7.43;6.72;;;19.40;99.90;;;;;;5073132;28;20031;-75
2021/08/20 07:49:14;;;;;;;7.97;7.20;;;19.50;99.90;;;;;;5054869;28;20028;-75
2021/08/20 07:51:40;;;;;;;7.68;6.93;;;19.50;99.90;;;;;;5056584;28;20404;-75
2021/08/20 07:54:06;;;;;;;7.28;6.57;;;19.50;99.90;;;;;;5067535;28;21355;-75
2021/08/20 07:56:31;;;;;;;8.25;7.03;;;19.50;99.90;;;;;;5068757;28;20064;-75
2021/08/20 07:58:57;;;;;;;6.65;6.03;;;19.50;99.90;;;;;;5055252;28;20012;-75
2021/08/20 08:01:23;;;;;;;8.63;7.15;;;19.60;99.90;;;;;;5050473;28;20033;-75
2021/08/20 08:03:48;;;;;;;7.90;7.20;;;19.60;99.90;;;;;;5068805;28;20103;-76
2021/08/20 08:06:14;;;;;;;11.18;6.25;;;19.70;99.90;;;;;;5053403;28;20032;-75
2021/08/20 08:08:40;;;;;;;7.43;6.32;;;19.70;99.90;;;;;;5066771;28;20100;-75
2021/08/20 08:11:07;;;;;;;10.48;6.45;;;19.80;99.90;;;;;;5047212;28;20037;-75
2021/08/20 08:13:33;;;;;;;7.43;6.65;;;19.80;99.90;;;;;;5070656;28;20048;-75
2021/08/20 08:15:59;;;;;;;7.93;6.22;;;19.80;99.90;;;;;;5072451;28;20052;-75
2021/08/20 08:18:24;;;;;;;5.90;5.30;;;19.90;99.90;;;;;;5064643;28;20031;-74
2021/08/20 08:20:50;;;;;;;7.50;6.78;;;20.00;99.90;;;;;;5071259;28;20032;-76
2021/08/20 08:23:16;;;;;;;5.88;5.38;;;20.10;99.90;;;;;;5066877;28;20095;-75
2021/08/20 08:25:42;;;;;;;7.32;5.18;;;20.10;99.90;;;;;;5071681;28;20039;-76
2021/08/20 08:28:08;;;;;;;6.25;5.10;;;20.20;99.90;;;;;;5063697;28;20033;-77
2021/08/20 08:30:40;;;;;;;5.93;5.32;;;20.20;99.90;;;;;;5070749;28;20033;-75
2021/08/20 08:33:07;;;;;;;5.32;4.82;;;20.30;99.90;;;;;;5070174;28;20020;-75
2021/08/20 08:35:33;;;;;;;8.07;7.35;;;20.30;99.90;;;;;;5064835;28;20041;-76
2021/08/20 08:38:03;;;;;;;7.50;6.50;;;20.30;99.90;;;;;;5051979;28;20512;-74
2021/08/20 08:40:29;;;;;;;8.50;7.80;;;20.50;99.90;;;;;;5067596;28;20477;-75
2021/08/20 08:42:57;;;;;;;10.27;7.47;;;20.50;99.90;;;;;;5071243;28;20032;-76
2021/08/20 08:45:23;;;;;;;7.35;6.65;;;20.40;99.90;;;;;;5066370;28;20355;-74
2021/08/20 08:47:52;;;;;;;8.25;7.45;;;20.50;99.90;;;;;;5070724;28;20037;-74
2021/08/20 08:50:19;;;;;;;7.10;6.38;;;20.50;99.90;;;;;;5065668;28;20063;-74
2021/08/20 08:52:45;;;;;;;9.32;6.78;;;20.60;99.90;;;;;;5052804;28;20028;-75
2021/08/20 08:55:11;;;;;;;8.02;6.07;;;20.50;99.90;;;;;;5069103;28;20040;-74
2021/08/20 08:57:37;;;;;;;9.20;6.65;;;20.60;99.90;;;;;;5069252;28;20021;-74
2021/08/20 09:00:05;;;;;;;10.85;7.15;;;20.70;99.90;;;;;;5064368;28;20042;-74
2021/08/20 09:02:32;;;;;;;6.22;5.63;;;20.70;99.90;;;;;;5066142;28;20033;-74
2021/08/20 09:05:10;;;;;;;6.47;5.88;;;20.80;99.90;;;;;;5052278;28;20017;-74
2021/08/20 09:07:38;;;;;;;5.60;5.10;;;20.80;99.90;;;;;;5068617;28;20020;-74
2021/08/20 09:10:16;;;;;;;5.28;4.70;;;20.80;99.90;;;;;;5066175;28;20035;-74
2021/08/20 09:13:02;;;;;;;5.63;4.72;;;20.80;99.90;;;;;;5068846;28;20060;-74
2021/08/20 09:15:30;;;;;;;8.05;4.38;;;20.90;99.90;;;;;;5065099;28;20043;-74
2021/08/20 09:18:01;;;;;;;5.38;4.30;;;20.90;99.90;;;;;;5064811;28;20108;-74
2021/08/20 09:20:28;;;;;;;4.13;3.67;;;20.80;99.90;;;;;;5070393;28;20090;-74
2021/08/20 09:22:57;;;;;;;4.47;3.75;;;20.90;99.90;;;;;;5060080;28;20031;-74
2021/08/20 09:25:30;;;;;;;3.97;3.20;;;20.90;99.90;;;;;;5066236;28;20024;-74
2021/08/20 09:28:08;;;;;;;;;;;20.90;99.90;;;;;;5067456;28;20024;-74
2021/08/20 09:30:33;;;;;;;5.72;4.03;;;20.90;99.90;;;;;;5065828;28;19940;-74
2021/08/20 09:32:59;;;;;;;3.90;3.42;;;20.90;99.90;;;;;;5067518;28;20480;-74
2021/08/20 09:35:34;;;;;;;4.20;3.85;;;20.90;99.90;;;;;;5071495;28;20033;-73
2021/08/20 09:38:13;;;;;;;3.97;3.60;;;21.00;99.90;;;;;;5066258;28;20023;-74
2021/08/20 09:40:50;;;;;;;5.97;4.55;;;21.10;99.90;;;;;;5062226;28;20029;-74
2021/08/20 09:43:23;;;;;;;4.68;3.88;;;21.10;99.90;;;;;;5071912;28;20016;-74
2021/08/20 09:45:57;;;;;;;;;;;21.30;99.90;;;;;;5066301;28;20029;-74
2021/08/20 09:48:43;;;;;;;7.43;4.35;;;21.30;99.90;;;;;;5068618;28;19999;-75
2021/08/20 09:51:11;;;;;;;6.10;3.83;;;21.40;99.90;;;;;;5047191;28;20043;-74
2021/08/20 09:53:37;;;;;;;3.60;3.30;;;21.40;99.90;;;;;;5063448;28;20024;-74
2021/08/20 09:56:06;;;;;;;3.67;3.22;;;21.30;99.90;;;;;;5067978;28;20091;-74
2021/08/20 09:58:33;;;;;;;3.72;3.42;;;21.30;99.90;;;;;;5063104;28;20016;-74
2021/08/20 10:01:03;;;;;;;3.92;2.95;;;21.40;99.90;;;;;;5063464;28;20112;-74
2021/08/20 10:03:32;;;;;;;4.32;3.90;;;21.30;99.90;;;;;;5067879;28;20078;-74
2021/08/20 10:05:59;;;;;;;5.22;3.50;;;21.30;99.90;;;;;;5064271;28;20048;-74
2021/08/20 10:08:26;;;;;;;3.90;3.08;;;21.30;99.90;;;;;;5049061;28;20561;-74
2021/08/20 10:10:54;;;;;;;4.05;2.97;;;21.30;99.90;;;;;;5064126;28;20064;-75
2021/08/20 10:13:22;;;;;;;4.40;2.80;;;21.40;99.90;;;;;;5063800;28;20090;-75
2021/08/20 10:15:48;;;;;;;6.20;3.08;;;21.40;99.90;;;;;;5049699;28;20414;-74
2021/08/20 10:18:15;;;;;;;2.67;2.40;;;21.40;99.90;;;;;;5067122;28;20036;-75
2021/08/20 10:20:42;;;;;;;3.42;3.00;;;21.40;99.90;;;;;;5065499;28;20082;-73
2021/08/20 10:23:11;;;;;;;3.80;2.50;;;21.50;99.90;;;;;;5067266;28;20063;-75
2021/08/20 10:25:38;;;;;;;3.97;3.05;;;21.50;99.90;;;;;;5067564;28;20480;-74
2021/08/20 10:28:04;;;;;;;3.35;3.05;;;21.50;99.90;;;;;;5066460;28;20573;-75
2021/08/20 10:30:32;;;;;;;2.90;2.63;;;21.50;99.90;;;;;;5067091;28;20317;-74
2021/08/20 10:33:02;;;;;;;3.05;2.60;;;21.70;99.90;;;;;;5070070;28;20027;-75
2021/08/20 10:35:48;;;;;;;7.60;2.58;;;21.70;99.90;;;;;;5068245;28;20107;-75
2021/08/20 10:38:26;;;;;;;2.45;2.17;;;21.70;99.90;;;;;;5066994;28;20032;-74
2021/08/20 10:41:12;;;;;;;2.45;2.25;;;21.80;99.90;;;;;;5067473;28;20039;-75
2021/08/20 10:44:03;;;;;;;2.65;2.22;;;21.80;99.90;;;;;;5065012;28;20552;-75
2021/08/20 10:46:34;;;;;;;2.83;2.50;;;21.80;99.90;;;;;;5067608;28;20104;-77
2021/08/20 10:49:12;;;;;;;4.28;2.50;;;21.80;99.90;;;;;;5068823;28;20025;-75
2021/08/20 10:51:53;;;;;;;2.38;2.13;;;21.90;99.90;;;;;;5059153;28;20037;-75
2021/08/20 10:54:24;;;;;;;2.85;2.28;;;21.80;99.90;;;;;;5067316;28;20039;-75
2021/08/20 10:56:50;;;;;;;2.28;2.15;;;21.90;99.90;;;;;;5065632;28;20032;-74
2021/08/20 10:59:38;;;;;;;2.60;2.40;;;21.90;99.90;;;;;;5070347;28;20048;-75
2021/08/20 11:02:30;;;;;;;4.00;2.15;;;22.00;99.90;;;;;;5069248;28;20024;-75
2021/08/20 11:05:10;;;;;;;2.55;2.35;;;22.00;99.90;;;;;;5046937;28;20051;-74
2021/08/20 11:07:42;;;;;;;5.07;2.25;;;22.00;99.90;;;;;;5056964;28;20032;-74
2021/08/20 11:10:07;;;;;;;2.88;1.80;;;22.20;99.90;;;;;;5072118;28;20046;-74
2021/08/20 11:12:46;;;;;;;3.45;1.90;;;22.20;99.90;;;;;;5067000;28;20025;-74
2021/08/20 11:15:21;;;;;;;2.33;2.20;;;22.40;99.90;;;;;;5065600;28;20028;-74
2021/08/20 11:17:53;;;;;;;3.22;2.92;;;22.50;99.90;;;;;;5067088;28;20024;-74
2021/08/20 11:20:38;;;;;;;3.97;2.90;;;22.50;99.90;;;;;;5072234;28;20147;-74
2021/08/20 11:25:40;;;;;;;4.20;3.17;;;22.30;99.90;;;;;;5068383;28;20033;-74
2021/08/20 11:28:19;;;;;;;3.17;2.80;;;22.30;99.90;;;;;;5066796;28;20029;-74
2021/08/20 11:31:03;;;;;;;3.85;2.72;;;22.30;99.90;;;;;;5071056;28;20029;-77
2021/08/20 11:33:31;;;;;;;5.15;2.75;;;22.20;99.90;;;;;;5068711;28;20385;-75
2021/08/20 11:36:01;;;;;;;2.78;2.58;;;22.20;99.90;;;;;;5063089;28;20032;-79
2021/08/20 11:38:39;;;;;;;3.45;2.80;;;22.10;99.90;;;;;;5067697;28;20123;-78
2021/08/20 11:41:12;;;;;;;5.60;2.97;;;22.20;99.90;;;;;;5070362;28;20033;-78
2021/08/20 11:43:49;;;;;;;7.57;3.30;;;22.20;99.90;;;;;;5071282;28;20141;-78
2021/08/20 11:46:15;;;;;;;5.47;3.38;;;22.20;99.90;;;;;;5066687;28;20068;-78
2021/08/20 11:48:46;;;;;;;5.93;3.45;;;22.30;99.90;;;;;;5067526;28;20023;-79
2021/08/20 11:51:13;;;;;;;4.53;3.90;;;22.30;99.90;;;;;;5066391;28;20366;-78
2021/08/20 11:53:46;;;;;;;5.00;4.00;;;22.10;99.90;;;;;;5070054;28;20028;-78
2021/08/20 11:56:13;;;;;;;6.97;4.85;;;22.10;99.90;;;;;;5071210;28;20060;-79
2021/08/20 11:58:43;;;;;;;9.60;6.43;;;22.10;99.90;;;;;;5066223;28;20035;-79
2021/08/20 12:01:37;;;;;;;5.45;4.72;;;22.20;99.90;;;;;;5069306;28;20060;-79
2021/08/20 12:04:04;;;;;;;6.78;4.55;;;22.20;99.90;;;;;;5062573;28;20504;-80
2021/08/20 12:06:30;;;;;;;4.60;4.20;;;22.40;99.90;;;;;;5070477;28;20048;-81
2021/08/20 12:09:11;;;;;;;3.92;3.60;;;22.40;99.90;;;;;;5060816;28;20492;-81
2021/08/20 12:11:37;;;;;;;4.35;3.60;;;22.60;99.90;;;;;;5060394;28;20047;-80
2021/08/20 12:14:03;;;;;;;5.10;3.50;;;22.70;99.90;;;;;;5052846;28;20112;-80
2021/08/20 12:16:43;;;;;;;5.95;3.55;;;22.80;99.90;;;;;;5071117;28;20021;-79
2021/08/20 12:19:16;;;;;;;4.07;3.42;;;22.90;99.90;;;;;;5068461;28;20028;-78
2021/08/20 12:21:45;;;;;;;3.25;2.95;;;22.90;99.90;;;;;;5070243;28;20031;-79
2021/08/20 12:24:12;;;;;;;4.13;3.35;;;23.00;99.90;;;;;;5065661;28;20029;-78
2021/08/20 12:26:37;;;;;;;3.33;3.08;;;23.10;99.90;;;;;;5063509;28;20393;-78
2021/08/20 12:29:17;;;;;;;6.15;3.65;;;23.20;99.90;;;;;;5072413;28;20024;-80
2021/08/20 12:31:57;;;;;;;2.50;2.30;;;23.20;99.90;;;;;;5065605;28;20029;-78
2021/08/20 12:34:33;;;;;;;3.10;2.80;;;23.20;99.90;;;;;;5071004;28;20029;-78
2021/08/20 12:37:02;;;;;;;4.65;3.22;;;23.40;99.90;;;;;;5067880;28;20029;-80
2021/08/20 12:39:45;;;;;;;4.45;2.97;;;23.40;99.90;;;;;;5054829;28;20090;-79
2021/08/20 12:42:24;;;;;;;3.83;2.70;;;23.40;99.90;;;;;;5066668;28;20037;-76
2021/08/20 12:45:16;;;;;;;3.53;3.05;;;23.40;99.90;;;;;;5069773;28;20108;-79